createdAt,value
2018-06-05T00:00:14.793Z,88
2018-06-05T00:01:16.832Z,88
2018-06-05T00:02:18.886Z,88
2018-06-05T00:03:20.922Z,88
2018-06-05T00:04:22.951Z,88
2018-06-05T00:05:24.992Z,88
2018-06-05T00:06:27.030Z,87
2018-06-05T00:07:29.075Z,88
2018-06-05T00:08:31.116Z,88
2018-06-05T00:09:33.151Z,88
2018-06-05T00:10:35.507Z,88
2018-06-05T00:11:37.922Z,89
2018-06-05T00:12:40.344Z,88
2018-06-05T00:13:42.403Z,88
2018-06-05T00:14:44.430Z,89
2018-06-05T00:15:46.475Z,89
2018-06-05T00:16:48.515Z,89
2018-06-05T00:17:51.116Z,89
2018-06-05T00:18:53.152Z,88
2018-06-05T00:19:55.184Z,88
2018-06-05T00:20:57.234Z,88
2018-06-05T00:21:59.276Z,89
2018-06-05T00:23:01.312Z,89
2018-06-05T00:24:03.646Z,90
2018-06-05T00:25:05.687Z,90
2018-06-05T00:26:07.733Z,89
2018-06-05T00:27:09.775Z,89
2018-06-05T00:28:11.808Z,89
2018-06-05T00:29:14.135Z,89
2018-06-05T00:30:16.181Z,89
2018-06-05T00:31:18.225Z,90
2018-06-05T00:32:20.265Z,89
2018-06-05T00:33:22.305Z,89
2018-06-05T00:34:24.340Z,89
2018-06-05T00:35:26.389Z,89
2018-06-05T00:36:28.420Z,89
2018-06-05T00:37:30.754Z,90
2018-06-05T00:38:33.075Z,90
2018-06-05T00:39:35.503Z,90
2018-06-05T00:40:37.540Z,90
2018-06-05T00:41:39.571Z,90
2018-06-05T00:42:41.617Z,90
2018-06-05T00:43:43.656Z,90
2018-06-05T00:44:45.981Z,90
2018-06-05T00:45:48.023Z,90
2018-06-05T00:46:50.062Z,90
2018-06-05T00:47:52.099Z,90
2018-06-05T00:48:54.444Z,91
2018-06-05T00:49:56.479Z,91
2018-06-05T00:50:58.523Z,90
2018-06-05T00:52:00.562Z,90
2018-06-05T00:53:02.605Z,90
2018-06-05T00:54:04.654Z,90
2018-06-05T00:55:06.685Z,90
2018-06-05T00:56:08.724Z,90
2018-06-05T00:57:10.755Z,90
2018-06-05T00:58:12.799Z,91
2018-06-05T00:59:14.832Z,91
2018-06-05T01:00:16.872Z,91
2018-06-05T01:01:18.920Z,91
2018-06-05T01:02:21.240Z,91
2018-06-05T01:03:23.563Z,91
2018-06-05T01:04:25.902Z,91
2018-06-05T01:05:27.941Z,91
2018-06-05T01:06:29.988Z,91
2018-06-05T01:07:32.019Z,91
2018-06-05T01:08:34.059Z,91
2018-06-05T01:09:36.084Z,91
2018-06-05T01:10:38.128Z,90
2018-06-05T01:11:40.169Z,91
2018-06-05T01:12:42.203Z,91
2018-06-05T01:13:44.241Z,91
2018-06-05T01:14:46.283Z,91
2018-06-05T01:15:48.334Z,90
2018-06-05T01:16:50.361Z,90
2018-06-05T01:17:52.406Z,90
2018-06-05T01:18:54.441Z,90
2018-06-05T01:19:56.478Z,90
2018-06-05T01:20:58.511Z,90
2018-06-05T01:22:00.545Z,90
2018-06-05T01:23:02.589Z,90
2018-06-05T01:24:04.912Z,90
2018-06-05T01:25:06.935Z,89
2018-06-05T01:26:08.983Z,89
2018-06-05T01:27:11.018Z,89
2018-06-05T01:28:13.049Z,88
2018-06-05T01:29:15.099Z,88
2018-06-05T01:30:17.140Z,88
2018-06-05T01:31:19.178Z,87
2018-06-05T01:32:21.216Z,88
2018-06-05T01:33:23.248Z,89
2018-06-05T01:34:25.298Z,88
2018-06-05T01:35:27.328Z,88
2018-06-05T01:36:29.672Z,87
2018-06-05T01:37:31.713Z,87
2018-06-05T01:38:33.745Z,87
2018-06-05T01:39:35.778Z,87
2018-06-05T01:40:37.815Z,86
2018-06-05T01:41:39.859Z,87
2018-06-05T01:42:42.195Z,87
2018-06-05T01:43:44.525Z,87
2018-06-05T01:44:46.572Z,87
2018-06-05T01:45:48.913Z,87
2018-06-05T01:46:50.952Z,87
2018-06-05T01:47:53.276Z,87
2018-06-05T01:48:55.315Z,88
2018-06-05T01:49:57.349Z,87
2018-06-05T01:50:59.397Z,87
2018-06-05T01:52:01.434Z,87
2018-06-05T01:53:03.469Z,87
2018-06-05T01:54:05.504Z,87
2018-06-05T01:55:07.851Z,86
2018-06-05T01:56:10.176Z,86
2018-06-05T01:57:12.507Z,86
2018-06-05T01:58:14.547Z,86
2018-06-05T01:59:16.592Z,86
2018-06-05T02:00:18.613Z,86
2018-06-05T02:01:20.655Z,86
2018-06-05T02:02:22.683Z,86
2018-06-05T02:03:24.731Z,86
2018-06-05T02:04:26.763Z,86
2018-06-05T02:05:28.790Z,86
2018-06-05T02:06:30.836Z,86
2018-06-05T02:07:32.868Z,86
2018-06-05T02:08:34.899Z,86
2018-06-05T02:09:36.950Z,86
2018-06-05T02:10:39.370Z,86
2018-06-05T02:11:41.405Z,86
2018-06-05T02:12:43.443Z,87
2018-06-05T02:13:45.480Z,86
2018-06-05T02:14:47.521Z,86
2018-06-05T02:15:49.559Z,86
2018-06-05T02:16:52.262Z,86
2018-06-05T02:17:54.593Z,86
2018-06-05T02:18:56.627Z,86
2018-06-05T02:19:58.674Z,85
2018-06-05T02:21:00.709Z,85
2018-06-05T02:22:02.755Z,85
2018-06-05T02:23:04.781Z,85
2018-06-05T02:24:07.119Z,85
2018-06-05T02:25:09.151Z,86
2018-06-05T02:26:11.187Z,86
2018-06-05T02:27:13.230Z,85
2018-06-05T02:28:15.548Z,86
2018-06-05T02:29:17.588Z,86
2018-06-05T02:30:20.200Z,86
2018-06-05T02:31:22.241Z,86
2018-06-05T02:32:24.677Z,86
2018-06-05T02:33:27.099Z,86
2018-06-05T02:34:29.147Z,86
2018-06-05T02:35:31.572Z,86
2018-06-05T02:36:33.611Z,86
2018-06-05T02:37:35.651Z,86
2018-06-05T02:38:37.971Z,86
2018-06-05T02:39:40.407Z,86
2018-06-05T02:40:42.445Z,85
2018-06-05T02:41:44.486Z,85
2018-06-05T02:42:46.551Z,85
2018-06-05T02:43:48.889Z,86
2018-06-05T02:44:51.494Z,86
2018-06-05T02:45:53.526Z,86
2018-06-05T02:46:55.855Z,85
2018-06-05T02:47:58.285Z,86
2018-06-05T02:49:00.709Z,86
2018-06-05T02:50:02.756Z,85
2018-06-05T02:51:05.188Z,85
2018-06-05T02:52:07.526Z,85
2018-06-05T02:53:09.568Z,85
2018-06-05T02:54:11.615Z,86
2018-06-05T02:55:14.324Z,85
2018-06-05T02:56:16.657Z,85
2018-06-05T02:57:19.077Z,84
2018-06-05T02:58:21.125Z,84
2018-06-05T02:59:23.167Z,84
2018-06-05T03:00:25.873Z,85
2018-06-05T03:01:27.916Z,85
2018-06-05T03:02:30.632Z,85
2018-06-05T03:03:32.978Z,85
2018-06-05T03:04:35.036Z,86
2018-06-05T03:05:38.054Z,86
2018-06-05T03:06:40.099Z,85
2018-06-05T03:07:42.150Z,86
2018-06-05T03:08:44.623Z,85
2018-06-05T03:09:46.987Z,85
2018-06-05T03:10:49.647Z,85
2018-06-05T03:11:51.732Z,85
2018-06-05T03:12:54.091Z,86
2018-06-05T03:13:56.451Z,84
2018-06-05T03:14:58.829Z,84
2018-06-05T03:16:01.180Z,85
2018-06-05T03:17:03.231Z,85
2018-06-05T03:18:05.588Z,84
2018-06-05T03:19:08.040Z,85
2018-06-05T03:20:10.129Z,85
2018-06-05T03:21:12.163Z,85
2018-06-05T03:22:14.520Z,85
2018-06-05T03:23:16.610Z,84
2018-06-05T03:24:18.639Z,84
2018-06-05T03:25:20.681Z,84
2018-06-05T03:26:22.770Z,85
2018-06-05T03:27:24.809Z,84
2018-06-05T03:28:26.869Z,83
2018-06-05T03:29:29.305Z,84
2018-06-05T03:30:31.695Z,85
2018-06-05T03:31:34.057Z,84
2018-06-05T03:32:36.094Z,84
2018-06-05T03:33:38.177Z,84
2018-06-05T03:34:40.551Z,84
2018-06-05T03:35:42.613Z,84
2018-06-05T03:36:44.692Z,84
2018-06-05T03:37:46.742Z,84
2018-06-05T03:38:48.806Z,84
2018-06-05T03:39:50.875Z,84
2018-06-05T03:40:52.985Z,84
2018-06-05T03:42:14.482Z,84
2018-06-05T03:43:16.474Z,84
2018-06-05T03:44:18.472Z,85
2018-06-05T03:45:20.464Z,84
2018-06-05T03:46:22.853Z,85
2018-06-05T03:47:24.841Z,85
2018-06-05T03:48:26.856Z,85
2018-06-05T03:49:28.844Z,85
2018-06-05T03:50:31.127Z,84
2018-06-05T03:51:33.131Z,83
2018-06-05T03:52:35.124Z,84
2018-06-05T03:53:37.407Z,84
2018-06-05T03:54:39.681Z,84
2018-06-05T03:55:41.969Z,84
2018-06-05T03:56:43.979Z,84
2018-06-05T03:57:45.970Z,84
2018-06-05T03:58:47.969Z,83
2018-06-05T03:59:49.965Z,84
2018-06-05T04:00:51.961Z,83
2018-06-05T04:01:53.952Z,83
2018-06-05T04:02:56.335Z,84
2018-06-05T04:03:58.344Z,82
2018-06-05T04:05:00.340Z,83
2018-06-05T04:06:02.632Z,84
2018-06-05T04:07:04.912Z,83
2018-06-05T04:08:07.190Z,83
2018-06-05T04:09:09.182Z,82
2018-06-05T04:10:11.187Z,83
2018-06-05T04:11:13.189Z,83
2018-06-05T04:12:15.461Z,83
2018-06-05T04:13:17.449Z,83
2018-06-05T04:14:19.447Z,83
2018-06-05T04:15:21.439Z,82
2018-06-05T04:16:23.438Z,82
2018-06-05T04:17:25.713Z,82
2018-06-05T04:18:27.720Z,82
2018-06-05T04:19:29.707Z,82
2018-06-05T04:20:31.717Z,81
2018-06-05T04:21:33.710Z,82
2018-06-05T04:22:35.694Z,82
2018-06-05T04:23:37.696Z,82
2018-06-05T04:24:39.692Z,82
2018-06-05T04:25:41.996Z,82
2018-06-05T04:26:43.986Z,82
2018-06-05T04:27:45.985Z,82
2018-06-05T04:28:47.993Z,83
2018-06-05T04:29:49.981Z,82
2018-06-05T04:30:51.976Z,82
2018-06-05T04:31:53.979Z,82
2018-06-05T04:32:55.976Z,83
2018-06-05T04:33:57.976Z,82
2018-06-05T04:34:59.969Z,82
2018-06-05T04:36:02.292Z,82
2018-06-05T04:37:04.245Z,82
2018-06-05T04:38:06.237Z,82
2018-06-05T04:39:08.244Z,83
2018-06-05T04:40:10.561Z,82
2018-06-05T04:41:12.860Z,83
2018-06-05T04:42:14.862Z,83
2018-06-05T04:43:16.852Z,83
2018-06-05T04:44:18.860Z,82
2018-06-05T04:45:21.525Z,82
2018-06-05T04:46:23.533Z,81
2018-06-05T04:47:25.524Z,81
2018-06-05T04:48:27.527Z,82
2018-06-05T04:49:29.515Z,81
2018-06-05T04:50:31.504Z,82
2018-06-05T04:51:33.805Z,81
2018-06-05T04:52:36.189Z,81
2018-06-05T04:53:38.559Z,81
2018-06-05T04:54:40.841Z,82
2018-06-05T04:55:43.134Z,82
2018-06-05T04:56:45.136Z,81
2018-06-05T04:57:47.138Z,82
2018-06-05T04:58:49.131Z,81
2018-06-05T04:59:51.120Z,81
2018-06-05T05:00:53.129Z,81
2018-06-05T05:01:55.124Z,81
2018-06-05T05:02:57.390Z,81
2018-06-05T05:04:00.052Z,82
2018-06-05T05:05:02.048Z,82
2018-06-05T05:06:04.040Z,82
2018-06-05T05:07:06.035Z,82
2018-06-05T05:08:08.039Z,82
2018-06-05T05:09:10.040Z,81
2018-06-05T05:10:12.031Z,82
2018-06-05T05:11:14.026Z,82
2018-06-05T05:12:16.718Z,82
2018-06-05T05:13:18.715Z,82
2018-06-05T05:14:20.718Z,82
2018-06-05T05:15:22.717Z,82
2018-06-05T05:16:24.722Z,83
2018-06-05T05:17:26.715Z,82
2018-06-05T05:18:28.984Z,82
2018-06-05T05:19:30.992Z,82
2018-06-05T05:20:32.991Z,82
2018-06-05T05:21:34.981Z,82
2018-06-05T05:22:36.984Z,82
2018-06-05T05:23:39.284Z,81
2018-06-05T05:24:41.284Z,83
2018-06-05T05:25:43.840Z,82
2018-06-05T05:26:45.848Z,81
2018-06-05T05:27:48.231Z,81
2018-06-05T05:28:50.494Z,81
2018-06-05T05:29:52.782Z,82
2018-06-05T05:30:54.842Z,81
2018-06-05T05:31:56.780Z,80
2018-06-05T05:32:58.772Z,80
2018-06-05T05:34:00.772Z,80
2018-06-05T05:35:02.778Z,80
2018-06-05T05:36:04.790Z,81
2018-06-05T05:37:07.174Z,80
2018-06-05T05:38:09.174Z,80
2018-06-05T05:39:11.223Z,81
2018-06-05T05:40:13.163Z,80
2018-06-05T05:41:15.447Z,80
2018-06-05T05:42:17.442Z,81
2018-06-05T05:43:19.439Z,81
2018-06-05T05:44:21.439Z,81
2018-06-05T05:45:23.719Z,80
2018-06-05T05:46:25.992Z,80
2018-06-05T05:47:27.992Z,79
2018-06-05T05:48:29.990Z,80
2018-06-05T05:49:32.380Z,81
2018-06-05T05:50:34.652Z,81
2018-06-05T05:51:36.933Z,81
2018-06-05T05:52:38.938Z,80
2018-06-05T05:53:40.930Z,79
2018-06-05T05:54:42.934Z,81
2018-06-05T05:55:45.310Z,78
2018-06-05T05:56:47.310Z,80
2018-06-05T05:57:49.302Z,80
2018-06-05T05:58:51.301Z,79
2018-06-05T05:59:53.304Z,79
2018-06-05T06:00:55.292Z,79
2018-06-05T06:01:57.290Z,80
2018-06-05T06:02:59.963Z,80
2018-06-05T06:04:01.965Z,80
2018-06-05T06:05:03.969Z,80
2018-06-05T06:06:06.346Z,80
2018-06-05T06:07:08.347Z,78
2018-06-05T06:08:10.626Z,78
2018-06-05T06:09:12.607Z,79
2018-06-05T06:10:14.895Z,80
2018-06-05T06:11:16.902Z,79
2018-06-05T06:12:18.940Z,80
2018-06-05T06:13:20.944Z,80
2018-06-05T06:14:22.942Z,80
2018-06-05T06:15:24.957Z,80
2018-06-05T06:16:27.258Z,80
2018-06-05T06:17:29.265Z,80
2018-06-05T06:18:31.571Z,78
2018-06-05T06:19:33.599Z,78
2018-06-05T06:20:35.627Z,78
2018-06-05T06:21:37.628Z,79
2018-06-05T06:22:39.623Z,79
2018-06-05T06:23:41.640Z,79
2018-06-05T06:24:43.634Z,80
2018-06-05T06:25:45.632Z,79
2018-06-05T06:26:48.055Z,79
2018-06-05T06:27:50.060Z,79
2018-06-05T06:28:52.452Z,78
2018-06-05T06:29:54.447Z,78
2018-06-05T06:30:56.847Z,79
2018-06-05T06:31:59.136Z,78
2018-06-05T06:33:01.148Z,77
2018-06-05T06:34:03.159Z,78
2018-06-05T06:35:05.170Z,79
2018-06-05T06:36:07.176Z,78
2018-06-05T06:37:09.175Z,78
2018-06-05T06:38:11.863Z,78
2018-06-05T06:39:13.882Z,78
2018-06-05T06:40:15.883Z,78
2018-06-05T06:41:17.905Z,78
2018-06-05T06:42:19.937Z,79
2018-06-05T06:43:21.937Z,78
2018-06-05T06:44:23.940Z,78
2018-06-05T06:45:25.954Z,78
2018-06-05T06:46:27.954Z,78
2018-06-05T06:47:29.968Z,78
2018-06-05T06:48:32.000Z,77
2018-06-05T06:49:34.312Z,77
2018-06-05T06:50:36.316Z,78
2018-06-05T06:51:38.343Z,77
2018-06-05T06:52:40.377Z,76
2018-06-05T06:53:42.429Z,76
2018-06-05T06:54:44.737Z,77
2018-06-05T06:55:47.012Z,77
2018-06-05T06:56:49.045Z,77
2018-06-05T06:57:51.028Z,77
2018-06-05T06:58:53.041Z,76
2018-06-05T06:59:55.057Z,76
2018-06-05T07:00:57.362Z,77
2018-06-05T07:01:59.363Z,78
2018-06-05T07:03:01.370Z,77
2018-06-05T07:04:03.665Z,78
2018-06-05T07:05:05.665Z,78
2018-06-05T07:06:07.665Z,77
2018-06-05T07:07:09.672Z,77
2018-06-05T07:08:11.668Z,76
2018-06-05T07:09:13.682Z,76
2018-06-05T07:10:15.687Z,76
2018-06-05T07:11:17.694Z,76
2018-06-05T07:12:19.754Z,77
2018-06-05T07:13:21.701Z,77
2018-06-05T07:14:23.688Z,76
2018-06-05T07:15:25.703Z,77
2018-06-05T07:16:27.692Z,78
2018-06-05T07:17:29.705Z,78
2018-06-05T07:18:31.703Z,78
2018-06-05T07:19:33.703Z,76
2018-06-05T07:20:35.701Z,77
2018-06-05T07:21:37.694Z,77
2018-06-05T07:22:39.699Z,78
2018-06-05T07:23:41.703Z,77
2018-06-05T07:24:43.697Z,76
2018-06-05T07:25:45.707Z,77
2018-06-05T07:26:47.697Z,79
2018-06-05T07:27:49.709Z,77
2018-06-05T07:28:51.703Z,76
2018-06-05T07:29:53.704Z,77
2018-06-05T07:30:55.705Z,77
2018-06-05T07:31:57.979Z,76
2018-06-05T07:32:59.985Z,78
2018-06-05T07:34:02.592Z,77
2018-06-05T07:35:04.875Z,77
2018-06-05T07:36:06.872Z,77
2018-06-05T07:37:08.865Z,77
2018-06-05T07:38:10.879Z,77
2018-06-05T07:39:13.168Z,76
2018-06-05T07:40:15.171Z,77
2018-06-05T07:41:17.173Z,77
2018-06-05T07:42:19.171Z,77
2018-06-05T07:43:21.455Z,77
2018-06-05T07:44:23.862Z,77
2018-06-05T07:45:25.853Z,77
2018-06-05T07:46:27.854Z,76
2018-06-05T07:47:29.852Z,77
2018-06-05T07:48:31.867Z,76
2018-06-05T07:49:34.143Z,76
2018-06-05T07:50:36.800Z,76
2018-06-05T07:51:39.188Z,77
2018-06-05T07:52:41.191Z,76
2018-06-05T07:53:43.189Z,77
2018-06-05T07:54:45.196Z,75
2018-06-05T07:55:47.194Z,77
2018-06-05T07:56:49.481Z,76
2018-06-05T07:57:51.472Z,76
2018-06-05T07:58:53.471Z,76
2018-06-05T07:59:55.474Z,75
2018-06-05T08:00:57.480Z,75
2018-06-05T08:01:59.762Z,76
2018-06-05T08:03:01.760Z,76
2018-06-05T08:04:03.759Z,75
2018-06-05T08:05:05.794Z,76
2018-06-05T08:06:07.788Z,75
2018-06-05T08:07:10.087Z,76
2018-06-05T08:08:12.475Z,75
2018-06-05T08:09:14.477Z,74
2018-06-05T08:10:16.487Z,75
2018-06-05T08:11:18.483Z,75
2018-06-05T08:12:21.252Z,74
2018-06-05T08:13:23.389Z,74
2018-06-05T08:14:25.412Z,75
2018-06-05T08:15:27.411Z,75
2018-06-05T08:16:29.410Z,76
2018-06-05T08:17:31.411Z,75
2018-06-05T08:18:33.418Z,75
2018-06-05T08:19:35.402Z,74
2018-06-05T08:20:37.693Z,75
2018-06-05T08:21:39.705Z,75
2018-06-05T08:22:41.709Z,74
2018-06-05T08:23:43.723Z,74
2018-06-05T08:24:45.765Z,73
2018-06-05T08:25:47.726Z,73
2018-06-05T08:26:49.742Z,74
2018-06-05T08:27:51.731Z,72
2018-06-05T08:28:53.742Z,72
2018-06-05T08:29:55.746Z,71
2018-06-05T08:30:58.016Z,71
2018-06-05T08:32:00.033Z,72
2018-06-05T08:33:02.027Z,73
2018-06-05T08:34:04.023Z,74
2018-06-05T08:35:06.053Z,72
2018-06-05T08:36:08.717Z,72
2018-06-05T08:37:10.724Z,73
2018-06-05T08:38:13.104Z,73
2018-06-05T08:39:15.111Z,73
2018-06-05T08:40:17.144Z,71
2018-06-05T08:41:19.169Z,72
2018-06-05T08:42:21.175Z,72
2018-06-05T08:43:23.191Z,73
2018-06-05T08:44:25.205Z,72
2018-06-05T08:45:27.221Z,71
2018-06-05T08:46:29.238Z,72
2018-06-05T08:47:31.244Z,72
2018-06-05T08:48:33.255Z,71
2018-06-05T08:49:35.260Z,72
2018-06-05T08:50:37.660Z,72
2018-06-05T08:51:39.948Z,73
2018-06-05T08:52:41.973Z,72
2018-06-05T08:53:43.973Z,72
2018-06-05T08:54:46.273Z,70
2018-06-05T08:55:48.299Z,70
2018-06-05T08:56:50.302Z,70
2018-06-05T08:57:52.320Z,68
2018-06-05T08:58:54.354Z,69
2018-06-05T08:59:56.727Z,69
2018-06-05T09:00:58.740Z,69
2018-06-05T09:02:00.734Z,67
2018-06-05T09:03:02.758Z,68
2018-06-05T09:04:04.783Z,69
2018-06-05T09:05:06.781Z,70
2018-06-05T09:06:08.825Z,71
2018-06-05T09:07:10.857Z,71
2018-06-05T09:08:12.879Z,70
2018-06-05T09:09:15.010Z,69
2018-06-05T09:10:17.603Z,70
2018-06-05T09:11:19.619Z,70
2018-06-05T09:12:21.647Z,68
2018-06-05T09:13:23.714Z,68
2018-06-05T09:14:25.725Z,68
2018-06-05T09:15:27.748Z,67
2018-06-05T09:16:30.377Z,67
2018-06-05T09:17:32.404Z,67
2018-06-05T09:18:34.407Z,67
2018-06-05T09:19:36.705Z,67
2018-06-05T09:20:38.727Z,65
2018-06-05T09:21:40.752Z,66
2018-06-05T09:22:42.761Z,67
2018-06-05T09:23:44.796Z,67
2018-06-05T09:24:46.797Z,67
2018-06-05T09:25:48.829Z,65
2018-06-05T09:26:50.836Z,67
2018-06-05T09:27:52.860Z,65
2018-06-05T09:28:54.873Z,65
2018-06-05T09:29:57.253Z,67
2018-06-05T09:30:59.545Z,68
2018-06-05T09:32:01.598Z,65
2018-06-05T09:33:03.917Z,67
2018-06-05T09:34:06.239Z,67
2018-06-05T09:35:08.236Z,66
2018-06-05T09:36:10.559Z,66
2018-06-05T09:37:12.892Z,67
2018-06-05T09:38:16.350Z,67
2018-06-05T09:39:18.815Z,67
2018-06-05T09:40:20.822Z,67
2018-06-05T09:41:22.830Z,66
2018-06-05T09:42:24.878Z,68
2018-06-05T09:43:26.916Z,65
2018-06-05T09:44:28.960Z,67
2018-06-05T09:45:31.020Z,67
2018-06-05T09:46:33.124Z,66
2018-06-05T09:47:35.274Z,66
2018-06-05T09:48:37.609Z,65
2018-06-05T09:49:40.452Z,64
2018-06-05T09:50:42.783Z,65
2018-06-05T09:51:44.832Z,66
2018-06-05T09:52:47.398Z,64
2018-06-05T09:53:49.470Z,65
2018-06-05T09:54:52.000Z,67
2018-06-05T09:55:54.450Z,68
2018-06-05T09:56:56.618Z,66
2018-06-05T09:57:58.757Z,66
2018-06-05T09:59:00.826Z,68
2018-06-05T10:00:02.942Z,69
2018-06-05T10:01:05.031Z,68
2018-06-05T10:02:07.377Z,68
2018-06-05T10:03:09.468Z,67
2018-06-05T10:04:11.727Z,68
2018-06-05T10:05:13.829Z,66
2018-06-05T10:06:16.195Z,65
2018-06-05T10:07:18.269Z,65
2018-06-05T10:08:20.318Z,65
2018-06-05T10:09:22.394Z,65
2018-06-05T10:10:24.483Z,66
2018-06-05T10:11:26.792Z,67
2018-06-05T10:12:29.128Z,68
2018-06-05T10:13:31.215Z,68
2018-06-05T10:14:33.329Z,66
2018-06-05T10:15:35.418Z,66
2018-06-05T10:16:37.886Z,66
2018-06-05T10:17:39.977Z,65
2018-06-05T10:18:42.052Z,65
2018-06-05T10:19:44.111Z,65
2018-06-05T10:20:46.164Z,65
2018-06-05T10:21:48.228Z,64
2018-06-05T10:22:50.306Z,65
2018-06-05T10:23:52.663Z,63
2018-06-05T10:24:54.708Z,65
2018-06-05T10:25:57.055Z,65
2018-06-05T10:26:59.112Z,65
2018-06-05T10:28:01.197Z,64
2018-06-05T10:29:03.540Z,65
2018-06-05T10:30:05.872Z,65
2018-06-05T10:31:07.956Z,65
2018-06-05T10:32:10.309Z,65
2018-06-05T10:33:12.655Z,66
2018-06-05T10:34:14.723Z,66
2018-06-05T10:35:16.827Z,64
2018-06-05T10:36:18.895Z,65
2018-06-05T10:37:20.964Z,64
2018-06-05T10:38:23.077Z,65
2018-06-05T10:39:25.179Z,65
2018-06-05T10:40:27.259Z,62
2018-06-05T10:41:29.348Z,64
2018-06-05T10:42:31.717Z,62
2018-06-05T10:43:34.111Z,62
2018-06-05T10:44:36.178Z,63
2018-06-05T10:45:38.250Z,62
2018-06-05T10:46:40.377Z,62
2018-06-05T10:47:42.718Z,62
2018-06-05T10:48:44.775Z,62
2018-06-05T10:49:46.864Z,64
2018-06-05T10:50:48.959Z,64
2018-06-05T10:51:51.427Z,63
2018-06-05T10:52:53.493Z,62
2018-06-05T10:53:55.569Z,61
2018-06-05T10:54:57.638Z,62
2018-06-05T10:55:59.720Z,61
2018-06-05T10:57:01.777Z,59
2018-06-05T10:58:03.841Z,58
2018-06-05T10:59:05.910Z,60
2018-06-05T11:00:08.296Z,59
2018-06-05T11:01:10.653Z,60
2018-06-05T11:02:12.711Z,62
2018-06-05T11:03:15.061Z,61
2018-06-05T11:04:17.110Z,60
2018-06-05T11:05:19.186Z,59
2018-06-05T11:06:21.281Z,58
2018-06-05T11:07:23.367Z,60
2018-06-05T11:08:25.505Z,59
2018-06-05T11:09:27.569Z,59
2018-06-05T11:10:30.046Z,58
2018-06-05T11:11:32.458Z,58
2018-06-05T11:12:34.534Z,59
2018-06-05T11:13:36.660Z,59
2018-06-05T11:14:38.780Z,59
2018-06-05T11:15:41.233Z,58
2018-06-05T11:16:43.271Z,58
2018-06-05T11:17:45.743Z,59
2018-06-05T11:18:47.801Z,58
2018-06-05T11:19:49.883Z,59
2018-06-05T11:20:51.951Z,57
2018-06-05T11:21:54.083Z,55
2018-06-05T11:22:56.151Z,56
2018-06-05T11:23:58.221Z,56
2018-06-05T11:25:00.315Z,57
2018-06-05T11:26:02.417Z,56
2018-06-05T11:27:04.491Z,54
2018-06-05T11:28:06.589Z,54
2018-06-05T11:29:09.074Z,54
2018-06-05T11:30:11.197Z,56
2018-06-05T11:31:13.270Z,55
2018-06-05T11:32:15.350Z,55
2018-06-05T11:33:17.749Z,55
2018-06-05T11:34:20.226Z,55
2018-06-05T11:35:22.293Z,54
2018-06-05T11:36:24.373Z,53
2018-06-05T11:37:26.435Z,55
2018-06-05T11:38:28.561Z,55
2018-06-05T11:39:30.940Z,54
2018-06-05T11:40:33.036Z,54
2018-06-05T11:41:35.115Z,54
2018-06-05T11:42:37.561Z,53
2018-06-05T11:43:39.891Z,55
2018-06-05T11:44:41.942Z,57
2018-06-05T11:45:44.014Z,53
2018-06-05T11:46:46.089Z,54
2018-06-05T11:47:48.117Z,53
2018-06-05T11:48:50.456Z,54
2018-06-05T11:49:52.513Z,53
2018-06-05T11:50:54.569Z,53
2018-06-05T11:51:56.623Z,51
2018-06-05T11:52:58.683Z,53
2018-06-05T11:54:00.825Z,52
2018-06-05T11:55:03.639Z,53
2018-06-05T11:56:05.702Z,53
2018-06-05T11:57:08.148Z,51
2018-06-05T11:58:10.195Z,53
2018-06-05T11:59:12.260Z,52
2018-06-05T12:00:14.321Z,50
2018-06-05T12:01:16.756Z,51
2018-06-05T12:02:18.816Z,52
2018-06-05T12:03:20.912Z,52
2018-06-05T12:04:22.976Z,51
2018-06-05T12:05:25.047Z,51
2018-06-05T12:06:27.100Z,52
2018-06-05T12:07:29.158Z,52
2018-06-05T12:08:31.413Z,52
2018-06-05T12:09:33.469Z,52
2018-06-05T12:10:35.548Z,53
2018-06-05T12:11:37.590Z,53
2018-06-05T12:12:39.646Z,51
2018-06-05T12:13:41.707Z,52
2018-06-05T12:14:43.756Z,52
2018-06-05T12:15:45.810Z,53
2018-06-05T12:16:47.871Z,52
2018-06-05T12:17:49.996Z,52
2018-06-05T12:18:51.998Z,52
2018-06-05T12:19:54.420Z,53
2018-06-05T12:20:56.484Z,54
2018-06-05T12:21:58.536Z,51
2018-06-05T12:23:00.591Z,49
2018-06-05T12:24:02.944Z,50
2018-06-05T12:25:04.993Z,51
2018-06-05T12:26:07.057Z,50
2018-06-05T12:27:09.399Z,50
2018-06-05T12:28:11.452Z,51
2018-06-05T12:29:13.513Z,51
2018-06-05T12:30:15.574Z,51
2018-06-05T12:31:17.624Z,50
2018-06-05T12:32:19.687Z,50
2018-06-05T12:33:21.743Z,50
2018-06-05T12:34:23.804Z,50
2018-06-05T12:35:25.855Z,49
2018-06-05T12:36:27.913Z,48
2018-06-05T12:37:29.976Z,48
2018-06-05T12:38:32.025Z,49
2018-06-05T12:39:34.086Z,51
2018-06-05T12:40:36.144Z,52
2018-06-05T12:41:38.253Z,53
2018-06-05T12:42:40.260Z,51
2018-06-05T12:43:42.311Z,48
2018-06-05T12:44:44.766Z,49
2018-06-05T12:45:46.821Z,49
2018-06-05T12:46:48.862Z,49
2018-06-05T12:47:50.931Z,49
2018-06-05T12:48:52.991Z,49
2018-06-05T12:49:55.048Z,50
2018-06-05T12:50:57.099Z,49
2018-06-05T12:51:59.162Z,48
2018-06-05T12:53:01.223Z,48
2018-06-05T12:54:03.570Z,49
2018-06-05T12:55:05.637Z,50
2018-06-05T12:56:07.696Z,50
2018-06-05T12:57:09.796Z,48
2018-06-05T12:58:11.820Z,50
2018-06-05T12:59:13.878Z,49
2018-06-05T13:00:15.945Z,48
2018-06-05T13:01:18.374Z,49
2018-06-05T13:02:20.432Z,51
2018-06-05T13:03:22.497Z,48
2018-06-05T13:04:24.548Z,49
2018-06-05T13:05:26.625Z,49
2018-06-05T13:06:28.663Z,49
2018-06-05T13:07:30.723Z,49
2018-06-05T13:08:32.789Z,49
2018-06-05T13:09:35.129Z,50
2018-06-05T13:10:37.195Z,48
2018-06-05T13:11:39.251Z,47
2018-06-05T13:12:41.323Z,48
2018-06-05T13:13:43.382Z,48
2018-06-05T13:14:45.438Z,46
2018-06-05T13:15:47.877Z,47
2018-06-05T13:16:49.944Z,47
2018-06-05T13:17:52.001Z,47
2018-06-05T13:18:54.069Z,48
2018-06-05T13:19:56.701Z,51
2018-06-05T13:20:59.100Z,48
2018-06-05T13:22:01.151Z,49
2018-06-05T13:23:03.680Z,47
2018-06-05T13:24:06.108Z,47
2018-06-05T13:25:08.171Z,46
2018-06-05T13:26:10.223Z,45
2018-06-05T13:27:12.290Z,44
2018-06-05T13:28:14.347Z,46
2018-06-05T13:29:16.690Z,44
2018-06-05T13:30:18.756Z,46
2018-06-05T13:31:21.098Z,46
2018-06-05T13:32:23.165Z,46
2018-06-05T13:33:25.225Z,46
2018-06-05T13:34:27.268Z,48
2018-06-05T13:35:29.347Z,46
2018-06-05T13:36:31.414Z,46
2018-06-05T13:37:33.519Z,46
2018-06-05T13:38:35.541Z,46
2018-06-05T13:39:37.882Z,47
2018-06-05T13:40:39.942Z,48
2018-06-05T13:41:42.339Z,46
2018-06-05T13:42:45.493Z,45
2018-06-05T13:43:47.577Z,46
2018-06-05T13:44:49.962Z,45
2018-06-05T13:45:52.012Z,45
2018-06-05T13:46:54.076Z,46
2018-06-05T13:47:56.152Z,45
2018-06-05T13:48:58.604Z,45
2018-06-05T13:50:00.664Z,44
2018-06-05T13:51:03.116Z,44
2018-06-05T13:52:05.173Z,46
2018-06-05T13:53:07.247Z,47
2018-06-05T13:54:09.301Z,46
2018-06-05T13:55:11.383Z,46
2018-06-05T13:56:13.734Z,47
2018-06-05T13:57:15.800Z,44
2018-06-05T13:58:18.152Z,45
2018-06-05T13:59:20.776Z,45
2018-06-05T14:00:22.848Z,47
2018-06-05T14:01:25.892Z,48
2018-06-05T14:02:28.223Z,49
2018-06-05T14:03:30.291Z,49
2018-06-05T14:04:32.677Z,49
2018-06-05T14:05:34.736Z,49
2018-06-05T14:06:36.798Z,48
2018-06-05T14:07:38.881Z,48
2018-06-05T14:08:40.962Z,47
2018-06-05T14:09:43.020Z,49
2018-06-05T14:10:45.473Z,49
2018-06-05T14:11:47.817Z,46
2018-06-05T14:12:49.888Z,45
2018-06-05T14:13:51.952Z,47
2018-06-05T14:14:54.032Z,48
2018-06-05T14:15:56.372Z,49
2018-06-05T14:16:58.428Z,51
2018-06-05T14:18:00.796Z,50
2018-06-05T14:19:03.148Z,49
2018-06-05T14:20:05.221Z,51
2018-06-05T14:21:07.290Z,49
2018-06-05T14:22:09.356Z,47
2018-06-05T14:23:11.426Z,47
2018-06-05T14:24:13.499Z,49
2018-06-05T14:25:15.574Z,49
2018-06-05T14:26:17.630Z,49
2018-06-05T14:27:19.698Z,49
2018-06-05T14:28:21.775Z,49
2018-06-05T14:29:23.839Z,49
2018-06-05T14:30:25.909Z,49
2018-06-05T14:31:27.968Z,48
2018-06-05T14:32:30.349Z,46
2018-06-05T14:33:32.406Z,45
2018-06-05T14:34:34.472Z,46
2018-06-05T14:35:36.945Z,45
2018-06-05T14:36:39.398Z,45
2018-06-05T14:37:41.752Z,45
2018-06-05T14:38:43.822Z,46
2018-06-05T14:39:45.888Z,46
2018-06-05T14:40:47.957Z,47
2018-06-05T14:41:50.295Z,46
2018-06-05T14:42:52.378Z,45
2018-06-05T14:43:54.449Z,46
2018-06-05T14:44:56.951Z,47
2018-06-05T14:45:58.946Z,47